createdAt,value
2023-04-22T05:02:57.583Z,11.43
2023-04-22T05:07:59.547Z,10.40
2023-04-22T05:13:04.138Z,10.48
2023-04-22T05:18:06.697Z,10.27
2023-04-22T05:23:08.363Z,10.02
2023-04-22T05:28:09.966Z,9.18
2023-04-22T05:33:19.661Z,10.45
2023-04-22T05:38:21.181Z,10.50
2023-04-22T05:43:23.455Z,10.35
2023-04-22T05:48:34.363Z,11.10
2023-04-22T05:53:42.032Z,9.65
2023-04-22T06:03:51.864Z,10.13
2023-04-22T06:08:53.786Z,10.50
2023-04-22T06:13:55.400Z,10.48
2023-04-22T06:18:57.146Z,9.47
2023-04-22T06:24:04.270Z,8.57
2023-04-22T06:29:05.967Z,9.68
2023-04-22T06:34:08.950Z,9.23
2023-04-22T06:39:11.052Z,9.60
2023-04-22T06:44:22.724Z,9.18
2023-04-22T06:49:53.524Z,10.70
2023-04-22T06:55:17.773Z,10.45
2023-04-22T07:00:20.190Z,9.45
2023-04-22T07:05:21.900Z,10.20
2023-04-22T07:10:24.737Z,9.48
2023-04-22T07:15:58.318Z,9.25
2023-04-22T07:20:59.877Z,8.65
2023-04-22T07:26:01.368Z,9.70
2023-04-22T07:31:03.190Z,8.55
2023-04-22T07:36:05.298Z,8.57
2023-04-22T07:41:06.760Z,7.65
2023-04-22T07:46:08.322Z,7.85
2023-04-22T07:51:09.968Z,7.80
2023-04-22T07:56:11.587Z,8.20
2023-04-22T08:01:13.053Z,7.30
2023-04-22T08:06:14.669Z,8.43
2023-04-22T08:11:16.161Z,8.20
2023-04-22T08:16:17.870Z,8.82
2023-04-22T08:21:19.322Z,7.63
2023-04-22T08:26:21.198Z,7.85
2023-04-22T08:31:22.819Z,6.60
2023-04-22T08:36:25.877Z,7.13
2023-04-22T08:41:27.616Z,6.80
2023-04-22T08:46:30.827Z,5.67
2023-04-22T08:51:35.393Z,4.40
2023-04-22T08:56:40.734Z,4.20
2023-04-22T09:01:43.204Z,4.00
2023-04-22T09:06:44.727Z,3.63
2023-04-22T09:11:46.219Z,3.83
2023-04-22T09:16:48.583Z,3.57
2023-04-22T09:26:57.275Z,4.07
2023-04-22T09:31:58.758Z,3.72
2023-04-22T09:37:00.341Z,4.00
2023-04-22T09:42:01.967Z,4.07
2023-04-22T09:47:03.513Z,3.47
2023-04-22T09:52:05.890Z,4.40
2023-04-22T09:57:13.540Z,4.13
2023-04-22T10:02:15.372Z,4.40
2023-04-22T10:07:17.470Z,5.00
2023-04-22T10:12:26.085Z,4.50
2023-04-22T10:17:33.701Z,4.20
2023-04-22T10:22:35.751Z,4.22
2023-04-22T10:27:39.097Z,4.05
2023-04-22T10:32:40.711Z,4.32
2023-04-22T10:37:43.328Z,3.85
2023-04-22T10:42:52.057Z,3.85
2023-04-22T10:47:53.713Z,4.13
2023-04-22T10:52:57.621Z,3.60
2023-04-22T10:57:59.432Z,3.55
2023-04-22T11:03:10.840Z,3.80
2023-04-22T11:08:16.584Z,3.90
2023-04-22T11:13:20.436Z,3.70
2023-04-22T11:18:26.386Z,3.45
2023-04-22T11:23:28.762Z,3.53
2023-04-22T11:28:30.717Z,3.78
2023-04-22T11:33:34.484Z,3.80
2023-04-22T11:38:36.026Z,3.90
2023-04-22T11:43:46.827Z,3.88
2023-04-22T11:48:48.279Z,3.95
2023-04-22T11:53:51.161Z,4.50
2023-04-22T11:58:52.600Z,3.50
2023-04-22T12:04:00.816Z,3.67
2023-04-22T12:09:02.574Z,4.65
2023-04-22T12:14:11.486Z,4.25
2023-04-22T12:19:13.236Z,4.05
2023-04-22T12:24:15.013Z,4.55
2023-04-22T12:29:16.440Z,4.47
2023-04-22T12:34:17.935Z,4.60
2023-04-22T12:39:19.717Z,4.65
2023-04-22T12:44:22.512Z,4.53
2023-04-22T12:49:25.954Z,4.28
2023-04-22T12:54:27.410Z,4.13
2023-04-22T12:59:28.896Z,3.58
2023-04-22T13:04:30.456Z,3.33
2023-04-22T13:09:31.917Z,3.53
2023-04-22T13:14:33.374Z,3.70
2023-04-22T13:19:35.252Z,3.92
2023-04-22T13:24:36.805Z,3.70
2023-04-22T13:34:40.138Z,3.63
2023-04-22T13:39:42.082Z,3.90
2023-04-22T13:44:43.703Z,3.58
2023-04-22T13:49:45.275Z,3.45
2023-04-22T13:54:46.715Z,3.63
2023-04-22T13:59:49.444Z,3.78
2023-04-22T14:04:50.961Z,3.80
2023-04-22T14:14:53.797Z,4.20
2023-04-22T14:19:55.260Z,4.57
2023-04-22T14:24:56.782Z,4.35
2023-04-22T14:29:58.351Z,5.07
2023-04-22T14:34:59.920Z,4.18
2023-04-22T14:40:01.619Z,5.38
2023-04-22T14:45:03.368Z,4.90
2023-04-22T14:50:05.443Z,4.82
2023-04-22T14:55:19.341Z,4.25
2023-04-22T15:00:27.359Z,4.75
2023-04-22T15:05:28.803Z,4.93
2023-04-22T15:10:30.359Z,4.82
2023-04-22T15:15:31.902Z,5.18
2023-04-22T15:20:33.424Z,5.80
2023-04-22T15:25:35.624Z,4.40
2023-04-22T15:30:37.240Z,4.53
2023-04-22T15:40:40.074Z,4.90
2023-04-22T15:45:41.780Z,4.68
2023-04-22T15:50:43.365Z,4.85
2023-04-22T15:55:45.803Z,4.43
2023-04-22T16:00:48.380Z,4.60
2023-04-22T16:05:49.935Z,4.40
2023-04-22T16:10:51.517Z,4.70
2023-04-22T16:15:53.027Z,4.82
2023-04-22T16:20:54.741Z,4.30
2023-04-22T16:25:56.190Z,4.45
2023-04-22T16:30:57.673Z,4.00
2023-04-22T16:35:59.122Z,4.47
2023-04-22T16:41:00.703Z,4.30
2023-04-22T16:46:02.473Z,4.10
2023-04-22T16:56:05.909Z,4.70
2023-04-22T17:06:08.844Z,4.80
2023-04-22T17:11:11.138Z,4.72
2023-04-22T17:16:12.654Z,5.38
2023-04-22T17:21:14.212Z,5.35
2023-04-22T17:26:15.860Z,5.68
2023-04-22T17:31:18.037Z,5.55
2023-04-22T17:36:20.147Z,5.70
2023-04-22T17:41:21.905Z,5.88
2023-04-22T17:46:23.356Z,5.32
2023-04-22T17:51:24.906Z,5.55
2023-04-22T17:56:26.498Z,6.20
2023-04-22T18:01:29.558Z,5.57
2023-04-22T18:06:32.339Z,5.47
2023-04-22T18:11:34.160Z,5.30
2023-04-22T18:16:35.935Z,4.90
2023-04-22T18:21:41.646Z,5.60
2023-04-22T18:26:49.177Z,5.50
2023-04-22T18:31:50.754Z,5.10
2023-04-22T18:36:52.332Z,5.30
2023-04-22T18:41:54.012Z,5.50
2023-04-22T18:46:55.620Z,5.32
2023-04-22T18:51:57.426Z,5.20
2023-04-22T18:56:58.850Z,5.30
2023-04-22T19:02:00.551Z,5.37
2023-04-22T19:07:02.032Z,5.85
2023-04-22T19:12:04.073Z,5.80
2023-04-22T19:17:05.548Z,5.70
2023-04-22T19:22:07.127Z,5.90
2023-04-22T19:27:12.308Z,5.67
2023-04-22T19:32:13.824Z,6.45
2023-04-22T19:37:15.936Z,6.57
2023-04-22T19:42:18.323Z,6.88
2023-04-22T19:52:21.965Z,6.32
2023-04-22T19:57:23.973Z,6.40
2023-04-22T20:02:25.823Z,6.30
2023-04-22T20:07:28.542Z,5.93
2023-04-22T20:12:30.745Z,5.75
2023-04-22T20:17:35.750Z,7.07
2023-04-22T20:22:38.007Z,6.95
2023-04-22T20:27:40.058Z,6.55
2023-04-22T20:32:42.137Z,6.15
2023-04-22T20:37:46.412Z,6.07
2023-04-22T20:42:47.835Z,6.60
2023-04-22T20:47:49.315Z,5.68
2023-04-22T20:52:51.988Z,5.45
2023-04-22T20:57:53.443Z,5.20
2023-04-22T21:02:55.780Z,4.90
2023-04-22T21:07:59.971Z,5.75
2023-04-22T21:13:01.707Z,4.80
2023-04-22T21:18:04.986Z,5.27
2023-04-22T21:23:07.740Z,4.95
2023-04-22T21:28:09.558Z,4.72
2023-04-22T21:33:11.006Z,4.77
2023-04-22T21:38:13.814Z,4.28
2023-04-22T21:43:15.324Z,4.68
2023-04-22T21:48:16.901Z,4.95
2023-04-22T21:53:20.510Z,4.13
2023-04-22T21:58:22.317Z,4.60
